Time;durP1;ratioP1;P1;durP2;ratioP2;P2;SDS_P1;SDS_P2;PMS_P1;PMS_P2;Temp;Humidity;BMP_temperature;BMP_pressure;BME280_temperature;BME280_humidity;BME280_pressure;Samples;Min_cycle;Max_cycle;Signal;HPM_P1;HPM_P2
2022/09/18 00:01:26;;;;;;;5.00;1.45;;;14.30;93.40;;;;;;5036324;28;20028;-84
2022/09/18 00:03:59;;;;;;;4.70;1.30;;;14.40;93.40;;;;;;5033885;28;20044;-81
2022/09/18 00:06:28;;;;;;;3.65;1.40;;;14.40;93.40;;;;;;5038677;28;20029;-85
2022/09/18 00:08:56;;;;;;;5.15;1.67;;;14.40;93.40;;;;;;5040267;28;20031;-82
2022/09/18 00:11:24;;;;;;;4.07;1.20;;;14.50;93.40;;;;;;5037746;28;20049;-84
2022/09/18 00:13:51;;;;;;;8.40;1.60;;;14.40;93.30;;;;;;5038672;28;20095;-83
2022/09/18 00:16:19;;;;;;;4.03;1.67;;;14.40;93.40;;;;;;5023025;28;20477;-82
2022/09/18 00:18:47;;;;;;;5.30;1.40;;;14.40;93.40;;;;;;5021944;28;20107;-84
2022/09/18 00:21:26;;;;;;;5.50;1.50;;;14.40;93.40;;;;;;5027655;28;20067;-83
2022/09/18 00:23:58;;;;;;;5.78;1.48;;;14.40;93.50;;;;;;5037570;28;20013;-83
2022/09/18 00:26:25;;;;;;;4.90;1.40;;;14.40;93.50;;;;;;5019040;28;20037;-85
2022/09/18 00:28:51;;;;;;;4.40;1.48;;;14.40;93.50;;;;;;5019340;28;20041;-84
2022/09/18 00:31:20;;;;;;;6.47;1.50;;;14.50;93.50;;;;;;5039492;28;20024;-84
2022/09/18 00:33:46;;;;;;;4.20;1.30;;;14.50;93.50;;;;;;5044077;28;20010;-82
2022/09/18 00:36:16;;;;;;;3.42;1.10;;;14.50;93.50;;;;;;5026577;28;20052;-83
2022/09/18 00:38:43;;;;;;;3.67;1.00;;;14.50;93.50;;;;;;5043314;28;20006;-82
2022/09/18 00:41:17;;;;;;;6.75;1.55;;;14.60;93.50;;;;;;5033432;28;20056;-84
2022/09/18 00:43:48;;;;;;;6.57;1.60;;;14.60;93.50;;;;;;5020070;28;20033;-84
2022/09/18 00:46:32;;;;;;;4.85;1.38;;;14.60;93.50;;;;;;5019900;28;20040;-84
2022/09/18 00:49:15;;;;;;;3.22;0.98;;;14.70;93.50;;;;;;5027260;28;20054;-84
2022/09/18 00:51:46;;;;;;;6.00;1.48;;;14.70;93.50;;;;;;4999062;28;20092;-84
2022/09/18 00:54:20;;;;;;;3.75;1.25;;;14.70;93.70;;;;;;5017245;28;20110;-84
2022/09/18 00:56:51;;;;;;;5.55;1.40;;;14.70;93.40;;;;;;5017080;28;20026;-84
2022/09/18 00:59:25;;;;;;;5.07;1.90;;;14.70;93.40;;;;;;4998469;28;20046;-83
2022/09/18 01:01:51;;;;;;;4.78;1.42;;;14.70;93.50;;;;;;4984453;28;20037;-83
2022/09/18 01:04:17;;;;;;;6.90;1.67;;;14.60;93.40;;;;;;5006118;28;20029;-84
2022/09/18 01:07:16;;;;;;;5.78;1.30;;;14.60;93.50;;;;;;5002716;28;20107;-83
2022/09/18 01:10:21;;;;;;;7.00;1.65;;;14.60;93.60;;;;;;4966475;28;20039;-84
2022/09/18 01:13:07;;;;;;;4.20;1.27;;;14.50;93.60;;;;;;5013020;28;20034;-83
2022/09/18 01:16:01;;;;;;;4.85;1.52;;;14.60;93.70;;;;;;5000681;28;20030;-84
2022/09/18 01:18:41;;;;;;;4.72;1.40;;;14.50;93.70;;;;;;5014900;28;20029;-83
2022/09/18 01:21:37;;;;;;;6.13;1.67;;;14.60;93.70;;;;;;4999010;28;20033;-83
2022/09/18 01:24:45;;;;;;;5.47;1.35;;;14.60;93.70;;;;;;5025189;28;20462;-84
2022/09/18 01:27:35;;;;;;;5.93;1.30;;;14.60;93.70;;;;;;5005543;28;20041;-84
2022/09/18 01:30:07;;;;;;;6.43;1.50;;;14.60;93.70;;;;;;5035818;28;20032;-84
2022/09/18 01:33:06;;;;;;;4.57;1.52;;;14.60;93.70;;;;;;5002400;28;20457;-83
2022/09/18 01:35:58;;;;;;;6.53;1.63;;;14.60;93.80;;;;;;5014207;28;20076;-84
2022/09/18 01:38:44;;;;;;;6.10;1.27;;;14.60;93.80;;;;;;4998414;28;20030;-84
2022/09/18 01:41:20;;;;;;;6.63;1.40;;;14.60;93.70;;;;;;4998361;28;20038;-83
2022/09/18 01:43:50;;;;;;;3.90;1.48;;;14.70;93.80;;;;;;4998934;28;20495;-84
2022/09/18 01:46:18;;;;;;;;;;;14.70;93.70;;;;;;5019496;28;20041;-84
2022/09/18 01:48:49;;;;;;;5.13;1.33;;;14.70;93.70;;;;;;5034669;28;20373;-83
2022/09/18 01:51:26;;;;;;;5.55;1.40;;;14.70;93.70;;;;;;5017785;28;20029;-84
2022/09/18 01:54:15;;;;;;;4.57;1.05;;;14.70;93.80;;;;;;5033791;28;20033;-84
2022/09/18 01:56:56;;;;;;;3.45;1.10;;;14.60;93.60;;;;;;4998396;28;20033;-82
2022/09/18 01:59:49;;;;;;;5.18;1.33;;;14.50;93.70;;;;;;5015160;28;20026;-84
2022/09/18 02:02:42;;;;;;;4.20;1.13;;;14.50;93.80;;;;;;4992179;28;20034;-83
2022/09/18 02:05:14;;;;;;;3.78;1.48;;;14.50;93.80;;;;;;5012083;28;20042;-84
2022/09/18 02:07:49;;;;;;;4.47;1.20;;;14.50;93.80;;;;;;5035415;28;20029;-83
2022/09/18 02:10:18;;;;;;;4.63;1.00;;;14.50;93.90;;;;;;5036334;28;20435;-84
2022/09/18 02:12:46;;;;;;;4.78;1.00;;;14.60;93.90;;;;;;5020453;28;20064;-84
2022/09/18 02:15:14;;;;;;;4.30;1.30;;;14.60;93.90;;;;;;5003789;28;20060;-84
2022/09/18 02:17:57;;;;;;;4.05;1.50;;;14.50;93.90;;;;;;5021795;28;20053;-81
2022/09/18 02:20:27;;;;;;;2.95;1.00;;;14.60;94.00;;;;;;5021134;28;20042;-83
2022/09/18 02:23:00;;;;;;;5.75;1.13;;;14.60;94.00;;;;;;5018384;28;20014;-83
2022/09/18 02:25:37;;;;;;;5.80;1.70;;;14.60;94.00;;;;;;4996079;28;20125;-83
2022/09/18 02:28:07;;;;;;;3.75;1.27;;;14.50;94.10;;;;;;4999175;28;20030;-85
2022/09/18 02:30:33;;;;;;;7.25;1.20;;;14.60;94.20;;;;;;4998425;28;20026;-84
2022/09/18 02:32:59;;;;;;;4.38;1.10;;;14.50;94.10;;;;;;4981444;28;20044;-83
2022/09/18 02:35:36;;;;;;;4.03;1.17;;;14.50;94.20;;;;;;4981966;28;20073;-84
2022/09/18 02:38:53;;;;;;;3.53;1.50;;;14.50;94.30;;;;;;5011848;28;20375;-83
2022/09/18 02:41:47;;;;;;;3.97;1.50;;;14.50;94.40;;;;;;4967216;28;20065;-85
2022/09/18 02:44:19;;;;;;;3.80;1.25;;;14.40;94.50;;;;;;5015464;28;20102;-84
2022/09/18 02:47:06;;;;;;;4.32;1.20;;;14.40;94.40;;;;;;4999066;28;20470;-84
2022/09/18 02:49:52;;;;;;;3.65;1.40;;;14.40;94.50;;;;;;5032324;28;20057;-83
2022/09/18 02:53:08;;;;;;;6.43;1.58;;;14.50;94.50;;;;;;5054798;28;20484;-83
2022/09/18 02:55:51;;;;;;;3.45;1.15;;;14.50;94.50;;;;;;5055708;28;20029;-84
2022/09/18 02:58:25;;;;;;;4.22;1.23;;;14.50;94.50;;;;;;5042787;28;20029;-84
2022/09/18 03:00:58;;;;;;;5.93;1.30;;;14.50;94.50;;;;;;5015736;28;20037;-85
2022/09/18 03:03:30;;;;;;;5.97;1.60;;;14.50;94.50;;;;;;5017845;28;20021;-84
2022/09/18 03:06:02;;;;;;;6.28;1.27;;;14.50;94.50;;;;;;5018067;28;20417;-84
2022/09/18 03:08:31;;;;;;;6.05;1.48;;;14.50;94.60;;;;;;5025757;28;20033;-83
2022/09/18 03:10:58;;;;;;;1.83;1.00;;;14.60;94.60;;;;;;5038001;28;20028;-84
2022/09/18 03:13:24;;;;;;;3.78;1.38;;;14.60;94.70;;;;;;5037389;28;20044;-83
2022/09/18 03:15:50;;;;;;;5.60;1.55;;;14.50;94.60;;;;;;5036879;28;20029;-84
2022/09/18 03:18:16;;;;;;;6.28;0.98;;;14.50;94.60;;;;;;5017075;28;20029;-83
2022/09/18 03:20:43;;;;;;;7.72;1.70;;;14.60;94.70;;;;;;5017755;28;20033;-84
2022/09/18 03:23:09;;;;;;;4.50;1.10;;;14.60;94.70;;;;;;5000614;28;20034;-86
2022/09/18 03:25:36;;;;;;;5.80;1.20;;;14.60;94.70;;;;;;5016021;28;20120;-84
2022/09/18 03:28:02;;;;;;;6.07;1.67;;;14.50;94.60;;;;;;5000854;28;20533;-84
2022/09/18 03:30:29;;;;;;;6.28;1.38;;;14.60;94.70;;;;;;5050723;28;20039;-83
2022/09/18 03:32:56;;;;;;;6.13;1.40;;;14.60;94.80;;;;;;5036398;28;20066;-84
2022/09/18 03:35:22;;;;;;;5.05;1.40;;;14.50;95.00;;;;;;5003528;28;20132;-84
2022/09/18 03:37:49;;;;;;;3.47;0.95;;;14.60;94.80;;;;;;5019398;28;20063;-85
2022/09/18 03:40:15;;;;;;;3.78;1.00;;;14.60;94.80;;;;;;4999793;28;20064;-85
2022/09/18 03:42:45;;;;;;;4.90;1.05;;;14.60;94.70;;;;;;5004689;28;20060;-84
2022/09/18 03:45:12;;;;;;;2.95;1.08;;;14.60;94.80;;;;;;5021049;28;20068;-85
2022/09/18 03:47:38;;;;;;;5.10;1.30;;;14.60;94.80;;;;;;5004317;28;20433;-83
2022/09/18 03:50:06;;;;;;;5.05;1.10;;;14.60;94.80;;;;;;5006845;28;20045;-84
2022/09/18 03:52:33;;;;;;;4.28;1.02;;;14.60;94.80;;;;;;5020672;28;20037;-82
2022/09/18 03:55:19;;;;;;;3.10;1.00;;;14.60;94.80;;;;;;5021670;28;20423;-84
2022/09/18 03:57:48;;;;;;;4.28;1.02;;;14.60;94.80;;;;;;5048744;28;20013;-84
2022/09/18 04:00:14;;;;;;;4.45;1.17;;;14.60;94.80;;;;;;5022943;28;20041;-86
2022/09/18 04:02:42;;;;;;;3.78;1.05;;;14.60;94.80;;;;;;4991974;28;20033;-83
2022/09/18 04:05:08;;;;;;;6.85;1.40;;;14.60;94.80;;;;;;5005959;28;20034;-84
2022/09/18 04:07:34;;;;;;;3.63;1.10;;;14.60;94.80;;;;;;5025273;28;20032;-85
2022/09/18 04:09:59;;;;;;;3.35;1.00;;;14.70;94.80;;;;;;5000800;28;20116;-84
2022/09/18 04:12:25;;;;;;;4.60;1.15;;;14.70;94.80;;;;;;5001269;28;20097;-84
2022/09/18 04:14:55;;;;;;;4.45;1.10;;;14.60;94.80;;;;;;5001743;28;20482;-82
2022/09/18 04:17:21;;;;;;;4.03;0.90;;;14.60;94.80;;;;;;5001476;28;20038;-84
2022/09/18 04:19:47;;;;;;;4.70;1.38;;;14.60;94.90;;;;;;5001215;28;20152;-84
2022/09/18 04:22:13;;;;;;;4.00;1.10;;;14.50;94.90;;;;;;4992516;28;20478;-84
2022/09/18 04:24:44;;;;;;;2.53;0.90;;;14.50;94.90;;;;;;5001042;28;20377;-83
2022/09/18 04:27:10;;;;;;;3.35;1.00;;;14.60;94.90;;;;;;4985605;28;20493;-84
2022/09/18 04:29:35;;;;;;;4.30;1.08;;;14.50;94.80;;;;;;5000468;28;20037;-83
2022/09/18 04:32:02;;;;;;;4.25;0.90;;;14.50;94.80;;;;;;4991348;28;20604;-85
2022/09/18 04:34:28;;;;;;;4.78;0.82;;;14.50;94.80;;;;;;5020129;28;20017;-82
2022/09/18 04:36:53;;;;;;;3.80;0.95;;;14.50;94.80;;;;;;5004686;28;20408;-85
2022/09/18 04:39:19;;;;;;;5.18;1.13;;;14.50;94.80;;;;;;5020287;28;20089;-84
2022/09/18 04:41:45;;;;;;;2.72;0.90;;;14.50;94.80;;;;;;4986587;28;20030;-85
2022/09/18 04:44:11;;;;;;;3.80;0.77;;;14.50;94.80;;;;;;5003120;28;20065;-84
2022/09/18 04:46:37;;;;;;;4.30;1.00;;;14.50;94.80;;;;;;5018960;28;20041;-84
2022/09/18 04:49:04;;;;;;;2.60;0.98;;;14.50;94.80;;;;;;5013571;28;20112;-84
2022/09/18 04:51:30;;;;;;;3.83;0.80;;;14.50;94.70;;;;;;5038910;28;20123;-83
2022/09/18 04:53:55;;;;;;;3.10;0.82;;;14.50;94.80;;;;;;5019322;28;20064;-84
2022/09/18 04:56:21;;;;;;;3.72;0.90;;;14.50;94.80;;;;;;5001521;28;20458;-83
2022/09/18 04:58:47;;;;;;;1.20;0.70;;;14.40;94.80;;;;;;5019793;28;20026;-84
2022/09/18 05:01:14;;;;;;;2.58;0.85;;;14.40;94.80;;;;;;5019637;28;20022;-84
2022/09/18 05:03:40;;;;;;;5.30;1.23;;;14.40;94.80;;;;;;5022928;28;20120;-84
2022/09/18 05:06:07;;;;;;;3.17;1.30;;;14.50;94.90;;;;;;5038633;28;20488;-84
2022/09/18 05:08:37;;;;;;;4.00;0.80;;;14.40;94.90;;;;;;5022193;28;20029;-84
2022/09/18 05:11:03;;;;;;;4.75;1.08;;;14.40;94.90;;;;;;5039077;28;20087;-84
2022/09/18 05:13:29;;;;;;;4.05;0.98;;;14.40;94.90;;;;;;5036746;28;20057;-85
2022/09/18 05:15:56;;;;;;;4.65;0.90;;;14.40;95.00;;;;;;5021924;28;20037;-84
2022/09/18 05:18:22;;;;;;;2.97;0.88;;;14.30;95.00;;;;;;5036528;28;20029;-84
2022/09/18 05:20:49;;;;;;;3.35;0.82;;;14.30;95.00;;;;;;5022769;28;20362;-84
2022/09/18 05:23:16;;;;;;;2.28;0.75;;;14.30;95.00;;;;;;5022782;28;20067;-85
2022/09/18 05:25:42;;;;;;;3.83;0.88;;;14.30;95.00;;;;;;5017180;28;20045;-85
2022/09/18 05:28:10;;;;;;;3.03;0.90;;;14.30;95.00;;;;;;5018768;28;20037;-83
2022/09/18 05:30:42;;;;;;;4.65;1.00;;;14.40;95.00;;;;;;5019296;28;20025;-85
2022/09/18 05:33:09;;;;;;;2.08;0.80;;;14.40;95.00;;;;;;5019363;28;20465;-85
2022/09/18 05:35:37;;;;;;;5.28;1.25;;;14.30;95.10;;;;;;5019219;28;20034;-83
2022/09/18 05:38:09;;;;;;;3.38;0.93;;;14.30;95.10;;;;;;5021014;28;20022;-83
2022/09/18 05:40:36;;;;;;;4.95;1.00;;;14.30;95.10;;;;;;5021526;28;20059;-85
2022/09/18 05:43:03;;;;;;;3.17;0.82;;;14.30;95.20;;;;;;5042560;28;20073;-85
2022/09/18 05:45:29;;;;;;;3.25;0.98;;;14.30;95.20;;;;;;5013359;28;20037;-87
2022/09/18 05:48:00;;;;;;;4.65;0.85;;;14.40;95.10;;;;;;5041196;28;20022;-84
2022/09/18 05:50:29;;;;;;;4.85;0.93;;;14.30;95.10;;;;;;5011283;28;20188;-83
2022/09/18 05:53:04;;;;;;;3.47;0.73;;;14.30;95.20;;;;;;4983872;28;20053;-84
2022/09/18 05:55:30;;;;;;;4.57;0.68;;;14.30;95.20;;;;;;4997835;28;20481;-84
2022/09/18 05:57:57;;;;;;;3.03;0.90;;;14.30;95.20;;;;;;4998545;28;20048;-83
2022/09/18 06:00:24;;;;;;;4.43;0.82;;;14.30;95.20;;;;;;4998171;28;20029;-83
2022/09/18 06:03:02;;;;;;;2.28;0.90;;;14.30;95.20;;;;;;4998145;28;20466;-84
2022/09/18 06:05:29;;;;;;;2.40;0.90;;;14.40;95.20;;;;;;4997785;28;20042;-84
2022/09/18 06:07:57;;;;;;;1.45;0.55;;;14.40;95.10;;;;;;4997838;28;20461;-84
2022/09/18 06:10:24;;;;;;;5.30;0.90;;;14.40;95.10;;;;;;5016243;28;20053;-83
2022/09/18 06:12:50;;;;;;;4.88;1.00;;;14.50;95.10;;;;;;4997958;28;20030;-83
2022/09/18 06:15:16;;;;;;;2.95;0.75;;;14.50;95.10;;;;;;4998191;28;20100;-83
2022/09/18 06:17:49;;;;;;;3.60;1.30;;;14.50;95.10;;;;;;4998044;28;20367;-84
2022/09/18 06:20:17;;;;;;;3.25;0.82;;;14.50;95.00;;;;;;4983462;28;20093;-85
2022/09/18 06:22:43;;;;;;;3.20;0.80;;;14.50;95.10;;;;;;4997654;28;20500;-83
2022/09/18 06:25:09;;;;;;;2.03;0.70;;;14.50;95.00;;;;;;4981057;28;20038;-83
2022/09/18 06:27:35;;;;;;;2.92;0.80;;;14.50;95.00;;;;;;4988376;28;20026;-84
2022/09/18 06:30:01;;;;;;;1.65;0.50;;;14.50;95.00;;;;;;4966329;28;20037;-84
2022/09/18 06:32:27;;;;;;;4.78;0.73;;;14.60;95.00;;;;;;5001099;28;20530;-84
2022/09/18 06:34:53;;;;;;;3.92;0.73;;;14.60;94.90;;;;;;5015526;28;20041;-84
2022/09/18 06:37:19;;;;;;;2.25;0.50;;;14.50;94.90;;;;;;5015732;28;20029;-86
2022/09/18 06:39:45;;;;;;;4.03;0.65;;;14.60;94.90;;;;;;4997624;28;20382;-84
2022/09/18 06:42:10;;;;;;;3.40;0.70;;;14.60;94.90;;;;;;4982463;28;20470;-85
2022/09/18 06:44:42;;;;;;;2.67;1.00;;;14.60;94.80;;;;;;5012957;28;20509;-84
2022/09/18 06:47:08;;;;;;;;;;;14.60;94.80;;;;;;5014429;28;20478;-84
2022/09/18 06:49:34;;;;;;;2.63;1.00;;;14.50;94.80;;;;;;5011374;28;19971;-85
2022/09/18 06:52:00;;;;;;;1.38;0.60;;;14.50;94.80;;;;;;5033227;28;20404;-84
2022/09/18 06:54:27;;;;;;;2.65;0.70;;;14.40;94.90;;;;;;4999852;28;20397;-84
2022/09/18 06:56:53;;;;;;;2.75;0.98;;;14.50;95.00;;;;;;5000177;28;20033;-84
2022/09/18 06:59:18;;;;;;;1.85;0.75;;;14.50;95.00;;;;;;5000281;28;20029;-83
2022/09/18 07:01:47;;;;;;;3.88;1.08;;;14.60;95.00;;;;;;4999919;28;20082;-83
2022/09/18 07:04:13;;;;;;;1.25;0.40;;;14.60;95.00;;;;;;5016704;28;20052;-83
2022/09/18 07:06:44;;;;;;;2.65;0.77;;;14.60;95.00;;;;;;5033285;28;20401;-85
2022/09/18 07:09:10;;;;;;;3.33;0.55;;;14.70;94.90;;;;;;5016552;28;20036;-82
2022/09/18 07:11:36;;;;;;;1.58;0.45;;;14.70;94.90;;;;;;5016404;28;20021;-84
2022/09/18 07:14:07;;;;;;;3.58;0.63;;;14.70;94.90;;;;;;5023636;28;20460;-84
2022/09/18 07:16:35;;;;;;;4.00;0.70;;;14.70;94.90;;;;;;5034925;28;20044;-83
2022/09/18 07:19:03;;;;;;;1.73;0.73;;;14.70;94.90;;;;;;5021159;28;20119;-83
2022/09/18 07:21:29;;;;;;;2.88;0.75;;;14.70;95.10;;;;;;5020679;28;20036;-84
2022/09/18 07:23:55;;;;;;;3.25;0.65;;;14.70;94.90;;;;;;5048956;28;20032;-84
2022/09/18 07:26:21;;;;;;;5.05;0.45;;;14.80;94.90;;;;;;5034529;28;20028;-85
2022/09/18 07:28:50;;;;;;;1.77;0.68;;;14.80;94.90;;;;;;5038511;28;20022;-85
2022/09/18 07:31:19;;;;;;;3.70;1.10;;;14.80;94.90;;;;;;5039598;28;20034;-85
2022/09/18 07:33:53;;;;;;;3.88;1.35;;;14.80;94.90;;;;;;5018486;28;20033;-83
2022/09/18 07:36:20;;;;;;;5.45;1.55;;;14.80;95.00;;;;;;5050388;28;20460;-82
2022/09/18 07:38:51;;;;;;;3.10;1.52;;;14.70;94.90;;;;;;5035395;28;20079;-84
2022/09/18 07:41:19;;;;;;;2.10;0.90;;;14.70;95.00;;;;;;5051845;28;20514;-84
2022/09/18 07:43:50;;;;;;;3.47;1.27;;;14.80;95.10;;;;;;5019098;28;20037;-84
2022/09/18 07:46:22;;;;;;;2.25;0.73;;;14.90;95.10;;;;;;5033296;28;20099;-84
2022/09/18 07:48:48;;;;;;;2.08;0.80;;;14.90;95.10;;;;;;4978791;28;20116;-83
2022/09/18 07:51:16;;;;;;;4.63;1.08;;;15.00;95.10;;;;;;4964211;28;20026;-84
2022/09/18 07:53:43;;;;;;;2.83;0.65;;;15.00;95.10;;;;;;4981060;28;20096;-84
2022/09/18 07:56:10;;;;;;;2.78;0.80;;;15.10;95.10;;;;;;4980041;28;20418;-81
2022/09/18 07:58:36;;;;;;;2.60;0.93;;;15.10;95.10;;;;;;4977327;28;20063;-84
2022/09/18 08:01:05;;;;;;;3.67;1.00;;;15.20;95.10;;;;;;4980481;28;20106;-84
2022/09/18 08:03:32;;;;;;;4.10;0.60;;;15.20;95.10;;;;;;4996295;28;20025;-84
2022/09/18 08:06:00;;;;;;;2.30;0.50;;;15.30;95.10;;;;;;4996142;28;20033;-84
2022/09/18 08:08:28;;;;;;;3.80;0.85;;;15.30;95.10;;;;;;4975060;28;20120;-83
2022/09/18 08:10:55;;;;;;;2.72;0.60;;;15.20;95.00;;;;;;5016046;28;20079;-85
2022/09/18 08:13:21;;;;;;;3.58;1.38;;;15.20;95.10;;;;;;4999673;28;20034;-83
2022/09/18 08:15:47;;;;;;;3.45;0.90;;;15.20;95.10;;;;;;4999641;28;20025;-84
2022/09/18 08:18:13;;;;;;;3.80;0.90;;;15.20;95.00;;;;;;4992112;28;20034;-84
2022/09/18 08:20:46;;;;;;;2.80;0.90;;;15.20;95.00;;;;;;4996548;28;20029;-83
2022/09/18 08:23:13;;;;;;;2.45;0.90;;;15.20;95.00;;;;;;4995837;28;20041;-85
2022/09/18 08:25:40;;;;;;;2.88;1.20;;;15.10;95.00;;;;;;5014116;28;20496;-84
2022/09/18 08:28:07;;;;;;;2.60;0.88;;;15.10;95.10;;;;;;4983084;28;20461;-84
2022/09/18 08:30:34;;;;;;;4.15;0.77;;;15.00;95.20;;;;;;4984684;28;20492;-83
2022/09/18 08:33:02;;;;;;;3.70;0.85;;;15.00;95.20;;;;;;5000592;28;20048;-83
2022/09/18 08:35:35;;;;;;;2.65;0.98;;;15.00;95.30;;;;;;4984776;28;20113;-83
2022/09/18 08:38:01;;;;;;;4.15;1.25;;;15.00;95.40;;;;;;4999564;28;20037;-84
2022/09/18 08:40:57;;;;;;;2.92;0.80;;;15.10;95.40;;;;;;4981807;28;20473;-85
2022/09/18 08:43:37;;;;;;;2.78;0.80;;;15.10;95.40;;;;;;5037382;28;20528;-85
2022/09/18 08:46:23;;;;;;;2.63;0.73;;;15.20;95.40;;;;;;5019340;28;20048;-84
2022/09/18 08:48:59;;;;;;;3.78;0.82;;;15.20;95.30;;;;;;5024608;28;20111;-83
2022/09/18 08:51:33;;;;;;;2.28;0.90;;;15.20;95.30;;;;;;5019491;28;20029;-85
2022/09/18 08:54:43;;;;;;;3.22;0.80;;;15.30;95.40;;;;;;5019408;28;20439;-85
2022/09/18 08:57:18;;;;;;;3.63;1.13;;;15.30;95.40;;;;;;4946069;29;20035;-85
2022/09/18 09:00:10;;;;;;;1.58;0.82;;;15.40;95.30;;;;;;4941911;28;20031;-84
2022/09/18 09:02:39;;;;;;;2.70;0.80;;;15.40;95.30;;;;;;5002271;28;20060;-85
2022/09/18 09:05:17;;;;;;;0.77;0.50;;;15.50;95.30;;;;;;5018445;28;20500;-84
2022/09/18 09:08:42;;;;;;;1.85;0.70;;;15.50;95.30;;;;;;5026085;28;20009;-86
2022/09/18 09:11:48;;;;;;;2.17;0.85;;;15.50;95.30;;;;;;5015016;28;20025;-85
2022/09/18 09:14:38;;;;;;;2.30;0.90;;;15.40;95.30;;;;;;5044178;28;20021;-86
2022/09/18 09:17:39;;;;;;;1.85;0.68;;;15.50;95.30;;;;;;5053698;28;20024;-85
2022/09/18 09:20:22;;;;;;;3.03;0.88;;;15.50;95.30;;;;;;5024374;28;20493;-85
2022/09/18 09:23:08;;;;;;;1.85;0.63;;;15.50;95.40;;;;;;5041646;28;20039;-88
2022/09/18 09:26:13;;;;;;;3.08;0.88;;;15.60;95.30;;;;;;5038800;28;20029;-86
2022/09/18 09:29:00;;;;;;;2.15;0.80;;;15.70;95.40;;;;;;5039473;28;20025;-85
2022/09/18 09:31:41;;;;;;;2.72;0.88;;;15.70;95.40;;;;;;5024498;28;20021;-85
2022/09/18 09:34:16;;;;;;;3.80;0.52;;;15.80;95.40;;;;;;5040754;28;20116;-85
2022/09/18 09:36:51;;;;;;;1.02;0.60;;;15.80;95.40;;;;;;5027722;28;20523;-85
2022/09/18 09:39:28;;;;;;;1.77;0.60;;;15.80;95.40;;;;;;5029204;28;20104;-85
2022/09/18 09:42:09;;;;;;;2.88;0.70;;;15.90;95.40;;;;;;5017670;28;20022;-85
2022/09/18 09:44:58;;;;;;;4.40;1.15;;;15.90;95.30;;;;;;5018083;28;20026;-86
2022/09/18 09:47:46;;;;;;;;;;;15.90;95.30;;;;;;5044407;28;20028;-84
2022/09/18 09:50:31;;;;;;;3.13;0.77;;;15.90;95.30;;;;;;5031696;28;19956;-85
2022/09/18 09:53:02;;;;;;;3.90;1.08;;;15.80;95.30;;;;;;5026562;28;20174;-83
2022/09/18 09:55:40;;;;;;;3.95;0.88;;;15.70;95.30;;;;;;5018858;28;20043;-84
2022/09/18 09:58:51;;;;;;;1.83;0.73;;;15.70;95.30;;;;;;5038224;28;20025;-87
2022/09/18 10:01:34;;;;;;;3.25;0.70;;;15.70;95.40;;;;;;5033739;28;20496;-84
2022/09/18 10:04:40;;;;;;;3.75;0.75;;;15.70;95.40;;;;;;5045280;28;20063;-85
2022/09/18 10:07:21;;;;;;;1.70;0.60;;;15.70;95.50;;;;;;5018053;28;20033;-85
2022/09/18 10:10:30;;;;;;;3.05;1.00;;;15.80;95.60;;;;;;5046897;28;20025;-84
2022/09/18 10:13:04;;;;;;;3.20;0.70;;;15.80;95.60;;;;;;5007889;28;20087;-84
2022/09/18 10:15:37;;;;;;;6.55;2.97;;;15.80;95.50;;;;;;5017024;28;20040;-84
2022/09/18 10:18:13;;;;;;;4.90;2.45;;;15.90;95.50;;;;;;5034737;28;20045;-84
2022/09/18 10:20:40;;;;;;;3.15;1.20;;;15.90;95.50;;;;;;5018259;28;20021;-83
2022/09/18 10:23:19;;;;;;;4.30;0.73;;;16.00;95.60;;;;;;5020415;28;20029;-84
2022/09/18 10:25:56;;;;;;;1.85;0.60;;;15.90;95.50;;;;;;5035302;28;20131;-84
2022/09/18 10:28:24;;;;;;;1.17;0.45;;;15.90;95.50;;;;;;5037092;28;20025;-85
2022/09/18 10:31:11;;;;;;;1.98;0.55;;;16.00;95.60;;;;;;5020442;28;20025;-85
2022/09/18 10:34:03;;;;;;;2.15;0.60;;;16.00;95.50;;;;;;5037100;28;20043;-85
2022/09/18 10:36:39;;;;;;;0.93;0.63;;;16.00;95.50;;;;;;5017516;28;20033;-83
2022/09/18 10:39:44;;;;;;;2.83;0.70;;;16.00;95.50;;;;;;5053854;28;20036;-83
2022/09/18 10:42:18;;;;;;;4.85;1.02;;;16.00;95.40;;;;;;5018158;28;20457;-84
2022/09/18 10:44:56;;;;;;;2.58;0.60;;;16.00;95.50;;;;;;5018982;28;20058;-85
2022/09/18 10:47:40;;;;;;;3.33;0.70;;;16.00;95.30;;;;;;5025515;28;20028;-85
2022/09/18 10:50:15;;;;;;;2.10;0.60;;;16.00;95.40;;;;;;5020369;28;20066;-86
2022/09/18 10:52:45;;;;;;;2.33;0.70;;;16.00;95.40;;;;;;5039083;28;20021;-84
2022/09/18 10:55:47;;;;;;;3.90;0.70;;;16.00;95.30;;;;;;5056652;28;20053;-86
2022/09/18 10:58:22;;;;;;;2.33;0.52;;;15.90;95.40;;;;;;5033065;28;20021;-85
2022/09/18 11:01:04;;;;;;;3.08;0.70;;;15.90;95.30;;;;;;5058157;28;20040;-86
2022/09/18 11:03:39;;;;;;;4.50;0.70;;;15.90;95.30;;;;;;5052323;28;20025;-85
2022/09/18 11:06:15;;;;;;;4.30;1.25;;;15.90;95.30;;;;;;5055288;28;20032;-85
2022/09/18 11:08:49;;;;;;;3.17;0.70;;;15.90;95.30;;;;;;5036227;28;20029;-84
2022/09/18 11:11:34;;;;;;;2.35;0.75;;;15.90;95.30;;;;;;5012923;28;20098;-84
2022/09/18 11:14:07;;;;;;;3.25;0.93;;;15.90;95.30;;;;;;5020536;28;20639;-87
2022/09/18 11:16:41;;;;;;;4.00;0.60;;;15.90;95.20;;;;;;5054060;28;20021;-85
2022/09/18 11:19:11;;;;;;;2.65;0.85;;;15.90;95.20;;;;;;5035682;28;20041;-85
2022/09/18 11:21:47;;;;;;;2.85;0.88;;;15.80;95.20;;;;;;5036612;28;20068;-86
2022/09/18 11:24:33;;;;;;;2.30;0.85;;;15.80;95.30;;;;;;5015939;28;20025;-86
2022/09/18 11:27:26;;;;;;;2.85;1.00;;;15.80;95.20;;;;;;5033838;28;20029;-87
2022/09/18 11:30:20;;;;;;;3.55;0.80;;;15.70;95.10;;;;;;4999775;28;20401;-84
2022/09/18 11:32:48;;;;;;;2.33;0.70;;;15.70;95.20;;;;;;5031408;28;20468;-86
2022/09/18 11:35:18;;;;;;;4.03;0.80;;;15.70;95.30;;;;;;5023609;28;20035;-84
2022/09/18 11:37:53;;;;;;;2.55;1.05;;;15.70;95.30;;;;;;5035914;28;20064;-83
2022/09/18 11:40:28;;;;;;;0.68;0.43;;;15.80;95.30;;;;;;5035341;28;20025;-81
2022/09/18 11:42:57;;;;;;;2.03;0.70;;;15.80;95.30;;;;;;5015743;28;20543;-83
2022/09/18 11:45:41;;;;;;;1.85;0.63;;;15.80;95.20;;;;;;5032530;28;20052;-82
2022/09/18 11:48:07;;;;;;;2.25;0.50;;;15.80;95.10;;;;;;5032089;28;20099;-83
2022/09/18 11:50:43;;;;;;;1.50;0.60;;;15.70;95.20;;;;;;5015063;28;20042;-83
2022/09/18 11:53:28;;;;;;;2.33;0.60;;;15.70;95.00;;;;;;5015630;28;20030;-83
2022/09/18 11:56:06;;;;;;;3.20;0.80;;;15.60;95.00;;;;;;5016127;28;20030;-83
2022/09/18 11:58:46;;;;;;;3.35;1.30;;;15.60;95.00;;;;;;5053040;28;20025;-82
2022/09/18 12:01:32;;;;;;;3.93;0.90;;;15.50;95.00;;;;;;5023161;28;20117;-83
2022/09/18 12:04:41;;;;;;;2.05;0.85;;;15.50;95.00;;;;;;5039079;28;20025;-83
2022/09/18 12:07:44;;;;;;;3.58;0.77;;;15.50;95.00;;;;;;5049412;28;20040;-84
2022/09/18 12:10:47;;;;;;;1.85;0.70;;;15.60;95.00;;;;;;5018805;28;20029;-83
2022/09/18 12:13:16;;;;;;;3.72;1.75;;;15.70;95.00;;;;;;5029252;28;20025;-83
2022/09/18 12:15:47;;;;;;;4.68;2.20;;;15.70;95.00;;;;;;5021809;28;20064;-84
2022/09/18 12:18:25;;;;;;;5.72;1.63;;;15.70;95.00;;;;;;5021142;28;20518;-83
2022/09/18 12:21:03;;;;;;;3.22;1.10;;;15.70;95.00;;;;;;5011660;28;20039;-84
2022/09/18 12:23:32;;;;;;;1.17;0.63;;;15.80;95.10;;;;;;5020665;28;20030;-83
2022/09/18 12:26:21;;;;;;;2.47;0.90;;;15.80;95.10;;;;;;5038864;28;20404;-82
2022/09/18 12:28:50;;;;;;;2.55;1.05;;;15.90;95.10;;;;;;5030579;28;20223;-82
2022/09/18 12:31:38;;;;;;;3.20;0.80;;;15.90;95.10;;;;;;5039131;28;20461;-84
2022/09/18 12:34:45;;;;;;;3.33;0.80;;;15.90;95.10;;;;;;5058373;28;20472;-83
2022/09/18 12:37:32;;;;;;;3.58;1.00;;;15.90;95.10;;;;;;5036216;28;20081;-85
2022/09/18 12:40:13;;;;;;;2.88;0.82;;;15.90;95.00;;;;;;5021982;28;20045;-84
2022/09/18 12:43:06;;;;;;;3.10;1.27;;;15.80;95.00;;;;;;5035022;28;20034;-83
2022/09/18 12:45:51;;;;;;;2.28;0.88;;;15.80;95.00;;;;;;5049669;28;20071;-82
2022/09/18 12:48:38;;;;;;;3.30;0.80;;;15.80;95.10;;;;;;5039520;28;20037;-83
2022/09/18 12:51:24;;;;;;;1.65;0.68;;;15.80;95.10;;;;;;5032294;28;20038;-84
2022/09/18 12:54:23;;;;;;;5.68;1.08;;;15.80;95.00;;;;;;5019597;28;20091;-82
2022/09/18 12:57:28;;;;;;;4.20;1.08;;;15.90;95.10;;;;;;5019501;28;20376;-83
2022/09/18 13:00:16;;;;;;;2.53;0.70;;;15.90;95.00;;;;;;5024321;28;20032;-82
2022/09/18 13:03:16;;;;;;;2.33;0.80;;;15.90;94.90;;;;;;5017599;28;20127;-82
2022/09/18 13:06:12;;;;;;;3.83;1.00;;;15.90;94.90;;;;;;5026688;28;20042;-83
2022/09/18 13:09:12;;;;;;;2.60;0.98;;;15.90;94.90;;;;;;5020897;28;20068;-83
2022/09/18 13:11:43;;;;;;;3.35;0.95;;;15.90;95.00;;;;;;5023227;28;20029;-83
2022/09/18 13:14:22;;;;;;;2.47;0.75;;;15.90;95.00;;;;;;5020039;28;20033;-82
2022/09/18 13:16:53;;;;;;;2.25;0.80;;;15.90;95.00;;;;;;5018275;28;20033;-83
2022/09/18 13:20:06;;;;;;;1.58;0.80;;;15.80;94.90;;;;;;5022505;28;20013;-83
2022/09/18 13:22:36;;;;;;;3.03;0.60;;;15.80;94.90;;;;;;4998296;28;20147;-84
2022/09/18 13:25:06;;;;;;;4.28;1.08;;;15.80;94.90;;;;;;5001640;28;20111;-83
2022/09/18 13:27:32;;;;;;;4.10;1.00;;;15.80;94.80;;;;;;5035221;28;20078;-83
2022/09/18 13:30:16;;;;;;;3.72;1.80;;;15.70;94.70;;;;;;5005097;28;20033;-84